This is the latest recevied weather packets stored in our database for station/object DG5MG. If no packets are shown the sender has not sent any weather packets the latest 10 day(s).
| Time | Temp. | Humidity | Pressure | Rain* | Wind** | Luminosity | Snow |
|---|---|---|---|---|---|---|---|
| 1777351805 | 3.89° C | 90% | 1021.3 hPa | 0 mm | - | 0 W/m² | - |
| 1777349405 | 3.89° C | 90% | 1021.3 hPa | 0 mm | - | 0 W/m² | - |
| 1777346404 | 4.44° C | 87% | 1021.7 hPa | 0 mm | - | 0 W/m² | - |
| 1777346105 | 4.44° C | 85% | 1021.3 hPa | 0 mm | - | 0 W/m² | - |
| 1777345804 | 4.44° C | 87% | 1021.7 hPa | 0 mm | - | 0 W/m² | - |
| 1777343404 | 5° C | 84% | 1022 hPa | 0 mm | - | 0 W/m² | - |
| 1777339504 | 5° C | 81% | 1022 hPa | 0 mm | - | 0 W/m² | - |
| 1777338905 | 5.56° C | 80% | 1022 hPa | 0 mm | - | 0 W/m² | - |
| 1777334705 | 6.11° C | 79% | 1022.4 hPa | 0 mm | - | 0 W/m² | - |
| 1777334404 | 6.11° C | 78% | 1022.4 hPa | 0 mm | - | 0 W/m² | - |
| 1777333205 | 6.67° C | 76% | 1022.4 hPa | 0 mm | - | 0 W/m² | - |
| 1777331704 | 7.22° C | 75% | 1022.7 hPa | 0 mm | - | 0 W/m² | - |
| 1777330804 | 7.22° C | 75% | 1022.7 hPa | 0 mm | - | 0 W/m² | - |
| 1777329905 | 7.22° C | 75% | 1022.7 hPa | 0 mm | - | 0 W/m² | - |
| 1777328405 | 7.78° C | 72% | 1022.7 hPa | 0 mm | - | 0 W/m² | - |
| 1777328105 | 8.33° C | 72% | 1023 hPa | 0 mm | - | 0 W/m² | - |
| 1777327204 | 8.33° C | 73% | 1022.7 hPa | 0 mm | - | 0 W/m² | - |
| 1777325704 | 8.89° C | 68% | 1022.7 hPa | 0 mm | - | 0 W/m² | - |
| 1777324804 | 8.89° C | 66% | 1022.7 hPa | 0 mm | - | 0 W/m² | - |
| 1777322704 | 10.56° C | 61% | 1023 hPa | 0 mm | - | 0 W/m² | - |
| 1777317005 | 13.89° C | 45% | 1023 hPa | 0 mm | - | 0 W/m² | - |
| 1777311904 | 17.22° C | 38% | 1023 hPa | 0 mm | - | 25 W/m² | - |
| 1777306205 | 19.44° C | 35% | 1023 hPa | 0 mm | - | 291 W/m² | - |
| 1777301705 | 21.67° C | 35% | 1023.4 hPa | 0 mm | - | 656 W/m² | - |
| 1777294506 | 21.67° C | 35% | 1024.2 hPa | 0 mm | - | 1172 W/m² | - |
* Rain latest hour (hover to see other rain measurements)
** Current wind speed in m/s (hover to see current wind gust speed)